Mosby, Montana
Current Conditions -  °F | °C
As of 6:35 PM on Thursday 27 Nov 2014 (Local Time) from KMVH Reporting Station
Clear Clear  
Wind Chill: 50°   Ceiling: Unl
Heat Index: 50°   Visibility: 10mi
Dew Point: 28°   Wind: 12mph
Humidity: 43%   Direction: 260°W
Pressure: 29.78"   Gusts: NA
Location:  46.99°N, 107.89°W
Report Text: KMVH 280135Z AUTO 26010KT 10SM CLR 10/M02 A2978 RMK A01
Loading
Personal Weather Stations






























Interactive Weather Map New forecast layout! Learn more

10-Day Weather Forecast

Advertisements
Track Severe Weather on mobile